Time;durP1;ratioP1;P1;durP2;ratioP2;P2;SDS_P1;SDS_P2;PMS_P1;PMS_P2;Temp;Humidity;BMP_temperature;BMP_pressure;BME280_temperature;BME280_humidity;BME280_pressure;Samples;Min_cycle;Max_cycle;Signal;HPM_P1;HPM_P2
2022/05/31 00:59:47;;;;;;;1.90;0.70;;;17.80;65.50;;;;;;5069688;28;20040;-67
2022/05/31 01:02:17;;;;;;;2.35;0.60;;;17.80;65.80;;;;;;5069574;28;20043;-67
2022/05/31 01:04:55;;;;;;;3.28;0.70;;;17.80;65.80;;;;;;5070645;28;20040;-67
2022/05/31 01:07:21;;;;;;;2.83;0.60;;;17.80;66.10;;;;;;5071965;28;20064;-66
2022/05/31 01:09:47;;;;;;;3.38;0.70;;;17.80;66.40;;;;;;5072390;28;20515;-67
2022/05/31 01:12:15;;;;;;;2.33;0.43;;;17.80;66.50;;;;;;5075915;28;20071;-67
2022/05/31 01:14:41;;;;;;;2.38;0.80;;;17.80;66.50;;;;;;5075636;28;20048;-67
2022/05/31 01:17:14;;;;;;;1.20;0.60;;;17.80;66.70;;;;;;5075690;28;20028;-67
2022/05/31 01:19:55;;;;;;;3.40;0.50;;;17.80;66.60;;;;;;5075623;28;20108;-67
2022/05/31 01:22:23;;;;;;;4.30;0.77;;;17.90;66.50;;;;;;5075571;28;20028;-67
2022/05/31 01:25:21;;;;;;;1.60;0.60;;;17.80;66.60;;;;;;5075408;28;20041;-67
2022/05/31 01:28:16;;;;;;;1.10;0.60;;;17.90;67.00;;;;;;5075182;28;20127;-67
2022/05/31 01:30:55;;;;;;;1.08;0.57;;;17.90;67.10;;;;;;5075460;28;20171;-67
2022/05/31 01:33:29;;;;;;;0.88;0.52;;;17.90;67.00;;;;;;5075546;28;20064;-67
2022/05/31 01:36:01;;;;;;;4.30;0.73;;;17.90;66.70;;;;;;5075151;28;20123;-67
2022/05/31 01:38:42;;;;;;;4.63;0.60;;;17.90;66.20;;;;;;5075254;28;20115;-67
2022/05/31 01:41:19;;;;;;;1.75;0.80;;;17.90;65.90;;;;;;5075044;28;20036;-67
2022/05/31 01:43:49;;;;;;;0.73;0.60;;;17.90;65.50;;;;;;5075421;28;20459;-67
2022/05/31 01:46:22;;;;;;;1.83;0.70;;;17.80;65.30;;;;;;5075301;28;20033;-67
2022/05/31 01:48:48;;;;;;;1.17;0.65;;;17.80;65.30;;;;;;5075432;28;20124;-67
2022/05/31 01:51:14;;;;;;;1.95;0.90;;;17.90;65.30;;;;;;5075106;28;20504;-67
2022/05/31 01:53:40;;;;;;;1.77;0.88;;;17.90;65.40;;;;;;5074990;28;20029;-67
2022/05/31 01:56:08;;;;;;;6.35;0.90;;;17.80;66.00;;;;;;5074946;28;20477;-67
2022/05/31 01:58:35;;;;;;;1.65;0.80;;;17.80;66.10;;;;;;5074931;28;20362;-67
2022/05/31 02:01:02;;;;;;;1.17;0.45;;;17.80;66.30;;;;;;5074868;28;20045;-66
2022/05/31 02:03:31;;;;;;;5.50;0.75;;;17.80;66.10;;;;;;5074839;28;20036;-67
2022/05/31 02:05:59;;;;;;;7.88;0.75;;;17.80;66.00;;;;;;5074582;28;20492;-67
2022/05/31 02:08:29;;;;;;;2.13;0.80;;;17.80;65.70;;;;;;5074927;28;20448;-66
2022/05/31 02:10:56;;;;;;;1.48;0.60;;;17.80;65.40;;;;;;5074997;28;20079;-67
2022/05/31 02:13:25;;;;;;;2.40;0.50;;;17.80;65.50;;;;;;5074945;28;20037;-67
2022/05/31 02:15:51;;;;;;;0.98;0.60;;;17.80;65.50;;;;;;5074842;28;20033;-67
2022/05/31 02:18:17;;;;;;;0.93;0.68;;;17.80;65.60;;;;;;5074757;28;20119;-67
2022/05/31 02:20:43;;;;;;;1.48;0.77;;;17.80;66.00;;;;;;5074545;28;20489;-67
2022/05/31 02:23:09;;;;;;;4.97;0.82;;;17.70;66.10;;;;;;5073794;28;20038;-67
2022/05/31 02:25:36;;;;;;;6.15;0.70;;;17.70;65.70;;;;;;5074126;28;20047;-67
2022/05/31 02:28:01;;;;;;;5.18;0.90;;;17.70;66.00;;;;;;5074457;28;20495;-67
2022/05/31 02:30:28;;;;;;;1.90;0.80;;;17.70;66.40;;;;;;5074306;28;20112;-67
2022/05/31 02:32:54;;;;;;;1.23;0.70;;;17.70;66.40;;;;;;5074244;28;20106;-67
2022/05/31 02:35:19;;;;;;;1.95;0.70;;;17.70;65.90;;;;;;5074188;28;20049;-67
2022/05/31 02:37:45;;;;;;;0.90;0.70;;;17.60;66.20;;;;;;5074426;28;20116;-66
2022/05/31 02:40:11;;;;;;;3.63;1.35;;;17.60;66.30;;;;;;5073889;28;20071;-67
2022/05/31 02:42:39;;;;;;;2.50;0.63;;;17.60;66.40;;;;;;5074097;28;20107;-67
2022/05/31 02:45:06;;;;;;;2.28;0.70;;;17.60;66.60;;;;;;5073935;28;20044;-66
2022/05/31 02:47:32;;;;;;;2.22;0.82;;;17.60;66.50;;;;;;5074166;28;20079;-67
2022/05/31 02:49:58;;;;;;;2.95;0.82;;;17.60;67.00;;;;;;5074244;28;20032;-67
2022/05/31 02:52:24;;;;;;;2.45;0.70;;;17.60;67.20;;;;;;5074028;28;20033;-67
2022/05/31 02:54:50;;;;;;;2.42;1.00;;;17.60;67.50;;;;;;5073414;28;20489;-67
2022/05/31 02:57:15;;;;;;;1.67;0.80;;;17.60;67.60;;;;;;5073726;28;20041;-67
2022/05/31 02:59:41;;;;;;;2.03;0.85;;;17.50;67.60;;;;;;5074236;28;20028;-67
2022/05/31 03:02:07;;;;;;;6.60;1.77;;;17.50;67.80;;;;;;5073867;28;20036;-67
2022/05/31 03:04:33;;;;;;;5.05;0.93;;;17.50;67.40;;;;;;5073691;28;20128;-66
2022/05/31 03:07:02;;;;;;;4.05;0.93;;;17.50;67.10;;;;;;5073716;28;20089;-68
2022/05/31 03:09:30;;;;;;;9.10;1.70;;;17.50;67.30;;;;;;5073491;28;20040;-67
2022/05/31 03:11:56;;;;;;;3.25;0.80;;;17.50;67.60;;;;;;5073777;28;20032;-67
2022/05/31 03:14:42;;;;;;;3.88;0.77;;;17.50;67.80;;;;;;5073642;28;20055;-67
2022/05/31 03:17:26;;;;;;;2.40;0.75;;;17.60;67.90;;;;;;5073694;28;20033;-67
2022/05/31 03:20:10;;;;;;;2.50;0.80;;;17.50;68.00;;;;;;5073302;28;20036;-68
2022/05/31 03:22:43;;;;;;;1.02;0.80;;;17.50;67.90;;;;;;5073438;28;20032;-67
2022/05/31 03:25:16;;;;;;;1.58;0.70;;;17.50;67.90;;;;;;5073428;28;20044;-67
2022/05/31 03:27:42;;;;;;;2.60;0.82;;;17.50;67.60;;;;;;5073460;28;20051;-67
2022/05/31 03:30:08;;;;;;;4.18;0.80;;;17.50;67.90;;;;;;5073512;28;20045;-67
2022/05/31 03:32:35;;;;;;;1.92;0.70;;;17.50;68.00;;;;;;5073278;28;20031;-67
2022/05/31 03:35:01;;;;;;;3.70;0.70;;;17.50;68.20;;;;;;5072082;28;20390;-67
2022/05/31 03:37:27;;;;;;;1.52;0.70;;;17.50;68.20;;;;;;5073115;28;20028;-68
2022/05/31 03:39:53;;;;;;;2.08;0.88;;;17.50;68.20;;;;;;5073214;28;20047;-68
2022/05/31 03:42:19;;;;;;;1.65;0.70;;;17.50;68.20;;;;;;5073353;28;20040;-67
2022/05/31 03:44:44;;;;;;;1.83;0.80;;;17.50;68.60;;;;;;5072880;28;20535;-67
2022/05/31 03:47:10;;;;;;;1.10;0.70;;;17.60;68.60;;;;;;5072861;28;20029;-67
2022/05/31 03:49:36;;;;;;;1.58;0.70;;;17.50;68.30;;;;;;5073143;28;20036;-68
2022/05/31 03:52:02;;;;;;;2.08;0.75;;;17.60;68.00;;;;;;5073330;28;20079;-67
2022/05/31 03:54:28;;;;;;;2.63;0.70;;;17.60;68.00;;;;;;5073099;28;20102;-67
2022/05/31 03:56:54;;;;;;;1.02;0.70;;;17.60;68.20;;;;;;5073027;28;20472;-67
2022/05/31 03:59:20;;;;;;;6.55;0.95;;;17.60;68.40;;;;;;5073028;28;20524;-67
2022/05/31 04:01:45;;;;;;;2.28;0.90;;;17.60;68.50;;;;;;5072899;28;20388;-67
2022/05/31 04:04:11;;;;;;;9.13;1.77;;;17.60;68.50;;;;;;5072872;28;20108;-68
2022/05/31 04:06:37;;;;;;;1.23;0.80;;;17.60;68.40;;;;;;5072851;28;20028;-67
2022/05/31 04:09:03;;;;;;;6.68;0.98;;;17.60;68.40;;;;;;5073068;28;20518;-67
2022/05/31 04:11:29;;;;;;;3.08;0.82;;;17.60;68.20;;;;;;5072890;28;20032;-67
2022/05/31 04:13:55;;;;;;;1.83;0.77;;;17.60;68.10;;;;;;5072699;28;20033;-67
2022/05/31 04:16:21;;;;;;;3.33;0.70;;;17.60;68.00;;;;;;5072566;28;20046;-67
2022/05/31 04:18:47;;;;;;;2.00;0.85;;;17.60;67.90;;;;;;5072974;28;20032;-67
2022/05/31 04:21:17;;;;;;;1.27;0.90;;;17.70;67.70;;;;;;5072891;28;20043;-66
2022/05/31 04:24:02;;;;;;;3.33;0.98;;;17.70;68.30;;;;;;5072785;28;20036;-67
2022/05/31 04:26:44;;;;;;;2.95;1.10;;;17.70;67.90;;;;;;5072446;28;20488;-66
2022/05/31 04:29:10;;;;;;;1.73;0.90;;;17.70;67.60;;;;;;5072739;28;20156;-67
2022/05/31 04:31:36;;;;;;;3.38;0.90;;;17.70;67.50;;;;;;5072738;28;20063;-67
2022/05/31 04:34:03;;;;;;;2.72;0.95;;;17.70;67.60;;;;;;5072287;28;20049;-66
2022/05/31 04:36:29;;;;;;;2.45;0.95;;;17.70;67.50;;;;;;5072346;28;20051;-67
2022/05/31 04:38:55;;;;;;;14.20;1.40;;;17.70;67.40;;;;;;5072647;28;20505;-67
2022/05/31 04:41:23;;;;;;;8.18;1.30;;;17.80;67.50;;;;;;5072442;28;20120;-67
2022/05/31 04:43:51;;;;;;;5.03;1.10;;;17.70;67.40;;;;;;5072229;28;20056;-66
2022/05/31 04:46:19;;;;;;;6.10;1.00;;;17.80;67.50;;;;;;5075334;28;20032;-67
2022/05/31 04:48:45;;;;;;;2.90;0.90;;;17.80;67.50;;;;;;5076651;28;20060;-67
2022/05/31 04:51:12;;;;;;;2.15;0.90;;;17.80;67.60;;;;;;5076506;28;20439;-68
2022/05/31 04:53:39;;;;;;;2.05;0.90;;;17.90;67.60;;;;;;5076322;28;20123;-67
2022/05/31 04:56:08;;;;;;;3.63;1.17;;;17.80;67.40;;;;;;5076392;28;20043;-66
2022/05/31 04:58:34;;;;;;;6.45;1.20;;;17.90;67.20;;;;;;5076403;28;20037;-67
2022/05/31 05:01:06;;;;;;;3.80;1.10;;;17.90;67.30;;;;;;5076307;28;20044;-67
2022/05/31 05:03:33;;;;;;;2.25;0.90;;;17.90;67.60;;;;;;5076290;28;20424;-70
2022/05/31 05:06:07;;;;;;;3.63;0.90;;;18.00;67.90;;;;;;5075858;28;20049;-66
2022/05/31 05:08:33;;;;;;;3.38;0.85;;;18.00;67.90;;;;;;5075843;28;20068;-67
2022/05/31 05:11:01;;;;;;;2.75;1.10;;;18.00;67.90;;;;;;5075684;28;20397;-67
2022/05/31 05:13:27;;;;;;;4.05;1.05;;;18.00;67.80;;;;;;5075767;28;20064;-67
2022/05/31 05:15:55;;;;;;;2.72;0.80;;;18.00;67.90;;;;;;5075959;28;20048;-67
2022/05/31 05:18:21;;;;;;;1.88;0.75;;;18.10;67.70;;;;;;5075844;28;20097;-67
2022/05/31 05:20:47;;;;;;;3.08;0.98;;;18.00;66.70;;;;;;5075958;28;20108;-67
2022/05/31 05:23:12;;;;;;;2.28;0.95;;;18.00;66.60;;;;;;5075668;28;20548;-67
2022/05/31 05:25:38;;;;;;;2.63;0.90;;;18.10;66.80;;;;;;5075940;28;20040;-67
2022/05/31 05:30:52;;;;;;;1.48;0.80;;;18.10;67.00;;;;;;5044386;28;20095;-66
2022/05/31 05:33:18;;;;;;;2.63;0.95;;;18.20;67.10;;;;;;5075468;28;20029;-66
2022/05/31 05:35:44;;;;;;;4.35;0.93;;;18.20;67.00;;;;;;5075418;28;20131;-67
2022/05/31 05:38:09;;;;;;;3.55;1.20;;;18.30;67.40;;;;;;5075398;28;20082;-66
2022/05/31 05:40:36;;;;;;;2.05;1.30;;;18.30;67.60;;;;;;5075455;28;20504;-66
2022/05/31 05:43:01;;;;;;;8.02;1.10;;;18.30;67.80;;;;;;5075397;28;20123;-66
2022/05/31 05:45:27;;;;;;;4.90;1.10;;;18.40;67.40;;;;;;5075047;28;20119;-67
2022/05/31 05:47:53;;;;;;;4.25;1.00;;;18.40;67.20;;;;;;5074915;28;20087;-69
2022/05/31 05:50:18;;;;;;;5.38;1.08;;;18.40;67.10;;;;;;5075273;28;20032;-68
2022/05/31 05:52:49;;;;;;;4.82;1.08;;;18.40;66.80;;;;;;5075206;28;20032;-69
2022/05/31 05:55:14;;;;;;;5.00;1.20;;;18.50;67.00;;;;;;5075432;28;20099;-68
2022/05/31 05:57:41;;;;;;;2.30;0.93;;;18.50;66.90;;;;;;5074106;28;20132;-69
2022/05/31 06:00:08;;;;;;;5.03;1.13;;;18.60;66.70;;;;;;5074986;28;20048;-69
2022/05/31 06:02:36;;;;;;;5.15;1.33;;;18.60;66.50;;;;;;5075054;28;20028;-68
2022/05/31 06:05:19;;;;;;;3.78;1.00;;;18.60;66.10;;;;;;5075169;28;20068;-69
2022/05/31 06:08:15;;;;;;;2.92;1.30;;;18.70;65.70;;;;;;5075092;28;20032;-69
2022/05/31 06:10:45;;;;;;;10.93;1.27;;;18.80;65.70;;;;;;5074075;28;20029;-68
2022/05/31 06:13:19;;;;;;;4.53;1.10;;;18.80;65.60;;;;;;5074561;28;20048;-69
2022/05/31 06:15:51;;;;;;;2.90;1.25;;;18.80;65.70;;;;;;5074194;28;20064;-69
2022/05/31 06:18:22;;;;;;;;;;;18.90;65.80;;;;;;5074533;28;20440;-69
2022/05/31 06:20:52;;;;;;;2.30;1.00;;;18.90;66.20;;;;;;5073035;28;19905;-69
2022/05/31 06:23:20;;;;;;;3.80;1.48;;;18.90;65.40;;;;;;5073716;28;20031;-68
2022/05/31 06:25:46;;;;;;;5.85;1.15;;;19.00;65.40;;;;;;5073337;28;20049;-68
2022/05/31 06:28:11;;;;;;;3.60;1.30;;;18.90;65.30;;;;;;5073628;28;20033;-68
2022/05/31 06:30:37;;;;;;;3.03;1.40;;;19.00;65.30;;;;;;5074165;28;20047;-68
2022/05/31 06:33:05;;;;;;;7.07;1.48;;;19.00;65.40;;;;;;5073846;28;20029;-69
2022/05/31 06:35:31;;;;;;;8.55;1.23;;;19.10;65.30;;;;;;5073984;28;20053;-69
2022/05/31 06:37:56;;;;;;;3.92;1.10;;;19.10;65.10;;;;;;5074020;28;20086;-69
2022/05/31 06:40:22;;;;;;;4.03;1.15;;;19.10;65.00;;;;;;5073750;28;20037;-68
2022/05/31 06:42:48;;;;;;;3.83;1.50;;;19.10;65.10;;;;;;5040881;28;20063;-68
2022/05/31 06:45:14;;;;;;;3.33;1.20;;;19.20;65.40;;;;;;5032949;28;20055;-68
2022/05/31 06:47:39;;;;;;;2.67;1.02;;;19.20;65.60;;;;;;5073683;28;20038;-68
2022/05/31 06:50:06;;;;;;;2.65;1.05;;;19.30;65.30;;;;;;5073876;28;20084;-69
2022/05/31 06:58:00;;;;;;;3.20;1.13;;;19.60;65.80;;;;;;5073978;28;20032;-69
2022/05/31 07:00:26;;;;;;;4.75;1.00;;;19.60;65.40;;;;;;5074168;28;20040;-69
2022/05/31 07:02:59;;;;;;;2.60;1.10;;;19.70;65.50;;;;;;5073848;28;20028;-69
2022/05/31 07:05:26;;;;;;;3.10;1.17;;;19.80;65.20;;;;;;5073913;28;20055;-68
2022/05/31 07:07:52;;;;;;;2.10;0.90;;;19.90;65.50;;;;;;5073628;28;20067;-69
2022/05/31 07:10:18;;;;;;;4.50;1.38;;;19.90;65.30;;;;;;5073657;28;20489;-67
2022/05/31 07:12:44;;;;;;;1.95;1.23;;;19.90;65.40;;;;;;5073850;28;20028;-68
2022/05/31 07:15:11;;;;;;;3.88;1.08;;;20.10;64.40;;;;;;5073365;28;20036;-67
2022/05/31 07:17:37;;;;;;;3.30;1.35;;;20.10;64.50;;;;;;5073549;28;20055;-68
2022/05/31 07:20:05;;;;;;;2.60;1.30;;;20.20;64.80;;;;;;5073396;28;20482;-68
2022/05/31 07:22:31;;;;;;;4.50;1.40;;;20.30;65.00;;;;;;5072829;28;20452;-67
2022/05/31 07:24:57;;;;;;;5.40;1.30;;;20.30;64.80;;;;;;5073312;28;20044;-69
2022/05/31 07:27:24;;;;;;;3.15;1.20;;;20.40;64.80;;;;;;5072295;28;20504;-67
2022/05/31 07:29:50;;;;;;;5.03;1.83;;;20.50;65.10;;;;;;5072748;28;20374;-68
2022/05/31 07:32:15;;;;;;;9.57;2.08;;;20.60;65.00;;;;;;5071992;28;20094;-68
2022/05/31 07:34:42;;;;;;;6.55;1.60;;;20.60;64.40;;;;;;5064304;28;20065;-68
2022/05/31 07:37:08;;;;;;;7.10;2.30;;;20.80;64.90;;;;;;5052895;28;20045;-68
2022/05/31 07:39:34;;;;;;;6.22;2.10;;;20.80;64.40;;;;;;5052519;28;20561;-69
2022/05/31 07:42:00;;;;;;;5.30;2.10;;;20.90;64.80;;;;;;5052668;28;20037;-68
2022/05/31 07:44:26;;;;;;;5.80;2.10;;;21.00;65.40;;;;;;5052933;28;20041;-68
2022/05/31 07:46:54;;;;;;;6.45;1.98;;;21.00;65.60;;;;;;5052527;28;20113;-68
2022/05/31 07:49:20;;;;;;;6.22;1.90;;;21.10;64.90;;;;;;5052016;28;20064;-68
2022/05/31 07:51:46;;;;;;;7.15;2.00;;;21.20;64.70;;;;;;5051862;28;20027;-68
2022/05/31 07:54:12;;;;;;;6.13;1.95;;;21.20;65.00;;;;;;5052813;28;20044;-69
2022/05/31 07:56:38;;;;;;;6.90;2.03;;;21.30;65.20;;;;;;5053103;28;20037;-68
2022/05/31 07:59:04;;;;;;;3.25;2.15;;;21.30;64.90;;;;;;5053230;28;20086;-69
2022/05/31 08:01:30;;;;;;;5.35;2.40;;;21.40;65.30;;;;;;5053073;28;20045;-68
2022/05/31 08:03:56;;;;;;;8.90;3.00;;;21.40;65.30;;;;;;5052788;28;20044;-68
2022/05/31 08:06:27;;;;;;;3.63;1.98;;;21.40;65.50;;;;;;5052953;28;20029;-69
2022/05/31 08:08:53;;;;;;;5.95;2.40;;;21.50;65.70;;;;;;5052705;28;20037;-68
2022/05/31 08:11:28;;;;;;;8.57;2.47;;;21.70;65.40;;;;;;5052981;28;20029;-68
2022/05/31 08:13:54;;;;;;;9.38;2.90;;;21.70;65.10;;;;;;5052732;28;20033;-68
2022/05/31 08:16:24;;;;;;;7.72;2.85;;;21.70;65.70;;;;;;5053220;28;20112;-68
2022/05/31 08:18:51;;;;;;;7.57;2.78;;;21.80;65.80;;;;;;5052794;28;20036;-68
2022/05/31 08:21:27;;;;;;;7.10;2.60;;;21.90;65.80;;;;;;5052315;28;20111;-68
2022/05/31 08:23:57;;;;;;;5.95;2.42;;;22.00;65.70;;;;;;5052679;28;20083;-68
2022/05/31 08:26:22;;;;;;;7.03;2.58;;;22.10;65.20;;;;;;5052779;28;20068;-67
2022/05/31 08:28:48;;;;;;;6.93;2.90;;;22.10;66.00;;;;;;5052764;28;20034;-68
2022/05/31 08:31:21;;;;;;;4.63;2.67;;;22.20;65.70;;;;;;5052950;28;20033;-68
2022/05/31 08:33:46;;;;;;;8.27;2.55;;;22.30;65.40;;;;;;5053795;28;20087;-68
2022/05/31 08:36:12;;;;;;;7.95;2.65;;;22.40;65.30;;;;;;5072896;28;20070;-68
2022/05/31 08:38:39;;;;;;;7.15;2.70;;;22.50;65.20;;;;;;5072815;28;20032;-69
2022/05/31 08:41:09;;;;;;;11.85;3.08;;;22.50;64.00;;;;;;5073037;28;20047;-70
2022/05/31 08:43:47;;;;;;;6.53;2.88;;;22.60;63.20;;;;;;5072893;28;20033;-70
2022/05/31 08:46:25;;;;;;;9.48;2.88;;;22.60;63.20;;;;;;5072524;28;20040;-68
2022/05/31 08:48:57;;;;;;;27.63;4.63;;;22.50;64.30;;;;;;5072484;28;20035;-68
2022/05/31 08:52:08;;;;;;;15.40;3.97;;;22.50;64.30;;;;;;5072435;28;20033;-69
2022/05/31 08:57:40;;;;;;;8.07;2.75;;;22.40;65.00;;;;;;5072687;28;20042;-68
2022/05/31 09:00:12;;;;;;;10.30;2.80;;;22.30;64.10;;;;;;5072478;28;20111;-68
2022/05/31 09:02:53;;;;;;;10.32;3.03;;;22.20;64.50;;;;;;5072413;28;20036;-68
2022/05/31 09:05:34;;;;;;;8.70;3.60;;;22.20;64.20;;;;;;5072554;28;20056;-68
2022/05/31 09:08:12;;;;;;;8.93;2.10;;;22.20;64.10;;;;;;5072139;28;20123;-68
2022/05/31 09:11:03;;;;;;;8.57;2.67;;;22.30;65.00;;;;;;5072488;28;20036;-68
2022/05/31 09:13:34;;;;;;;8.60;2.55;;;22.40;65.00;;;;;;5072813;28;20174;-69
2022/05/31 09:16:13;;;;;;;7.85;2.80;;;22.50;64.10;;;;;;5072478;28;20033;-68
2022/05/31 09:18:42;;;;;;;5.43;2.50;;;22.70;64.40;;;;;;5072506;28;20515;-68
2022/05/31 09:21:32;;;;;;;8.20;2.85;;;22.80;63.40;;;;;;5072427;28;20037;-69
2022/05/31 09:23:58;;;;;;;3.65;2.45;;;23.00;63.00;;;;;;5060038;28;20128;-68
2022/05/31 09:26:51;;;;;;;7.53;2.60;;;23.00;62.90;;;;;;5072323;28;20159;-69
2022/05/31 09:29:49;;;;;;;8.15;2.65;;;23.00;63.20;;;;;;5072399;28;20040;-69
2022/05/31 09:32:41;;;;;;;7.00;2.67;;;23.00;63.20;;;;;;5059452;28;20488;-69
2022/05/31 09:35:07;;;;;;;;;;;23.10;62.90;;;;;;5076119;28;20053;-69
2022/05/31 09:38:08;;;;;;;15.82;3.13;;;23.20;63.30;;;;;;5076127;28;20004;-69
2022/05/31 09:41:05;;;;;;;5.13;2.80;;;23.40;62.90;;;;;;5075766;28;20056;-69
2022/05/31 09:43:55;;;;;;;5.90;3.15;;;23.40;61.50;;;;;;5075595;28;20043;-69
2022/05/31 09:46:41;;;;;;;8.20;2.65;;;23.50;62.00;;;;;;5075644;28;20103;-69
2022/05/31 09:49:36;;;;;;;6.13;2.60;;;23.50;62.00;;;;;;5075796;28;20107;-69
2022/05/31 09:52:07;;;;;;;5.00;2.70;;;23.40;62.10;;;;;;5075509;28;20028;-68
2022/05/31 09:57:58;;;;;;;8.93;2.78;;;23.40;61.70;;;;;;5075646;28;20366;-68
2022/05/31 10:00:24;;;;;;;6.45;2.10;;;23.50;62.70;;;;;;5075620;28;20033;-68
2022/05/31 10:03:11;;;;;;;10.32;3.15;;;23.50;62.00;;;;;;5075133;28;20119;-69
2022/05/31 10:05:42;;;;;;;14.15;3.05;;;23.40;61.50;;;;;;5075142;28;20095;-68
2022/05/31 10:08:30;;;;;;;7.40;2.60;;;23.40;62.00;;;;;;5075211;28;20056;-69
2022/05/31 10:10:56;;;;;;;6.35;2.83;;;23.30;62.40;;;;;;5075239;28;20039;-69
2022/05/31 10:13:44;;;;;;;9.63;3.17;;;23.30;63.80;;;;;;5075502;28;20048;-68
2022/05/31 10:16:19;;;;;;;8.23;2.75;;;23.30;64.10;;;;;;5074760;28;20392;-69
2022/05/31 10:18:54;;;;;;;10.48;3.45;;;23.20;64.70;;;;;;5074451;28;20397;-68
2022/05/31 10:21:33;;;;;;;5.90;2.63;;;23.20;64.40;;;;;;5074563;28;20508;-68
2022/05/31 10:24:17;;;;;;;6.35;2.97;;;23.20;64.10;;;;;;5074704;28;20504;-69
2022/05/31 10:26:45;;;;;;;6.60;2.72;;;23.20;63.90;;;;;;5075127;28;20036;-68
2022/05/31 10:29:27;;;;;;;7.90;2.97;;;23.20;64.00;;;;;;5074099;28;20381;-69
2022/05/31 10:31:53;;;;;;;;;;;23.20;64.00;;;;;;5074783;28;20036;-68
2022/05/31 10:34:31;;;;;;;8.80;3.08;;;23.30;63.90;;;;;;5073977;28;19916;-69
2022/05/31 10:36:59;;;;;;;5.47;2.47;;;23.60;64.10;;;;;;5074176;28;20405;-70
2022/05/31 10:39:29;;;;;;;7.10;2.85;;;23.70;63.40;;;;;;5074409;28;20033;-68
2022/05/31 10:41:58;;;;;;;6.28;2.40;;;24.00;61.40;;;;;;5074142;28;20033;-68
2022/05/31 10:44:29;;;;;;;8.73;2.42;;;24.20;61.60;;;;;;5073556;28;20041;-68
2022/05/31 10:47:13;;;;;;;8.50;2.75;;;24.40;60.60;;;;;;5074246;28;20040;-69
2022/05/31 10:49:41;;;;;;;4.05;1.90;;;24.60;61.60;;;;;;5074068;28;20033;-68
2022/05/31 10:52:07;;;;;;;5.57;1.88;;;24.80;58.20;;;;;;5073854;28;20555;-68
2022/05/31 10:54:44;;;;;;;5.28;2.17;;;24.90;55.70;;;;;;5072819;28;20025;-68
2022/05/31 10:57:30;;;;;;;8.90;1.95;;;25.00;55.70;;;;;;5074190;28;20032;-68
2022/05/31 11:00:20;;;;;;;5.88;1.95;;;25.10;54.30;;;;;;5074387;28;20029;-69
2022/05/31 11:02:52;;;;;;;5.07;1.58;;;25.20;55.30;;;;;;5073502;28;20044;-68
2022/05/31 11:05:22;;;;;;;6.88;1.80;;;25.30;54.70;;;;;;5072340;28;20049;-68
2022/05/31 11:13:41;;;;;;;4.63;1.67;;;25.60;53.00;;;;;;5073787;28;20519;-68
2022/05/31 11:16:18;;;;;;;4.35;1.83;;;25.70;51.50;;;;;;5073977;28;20029;-68
2022/05/31 11:19:07;;;;;;;8.35;1.63;;;25.80;52.80;;;;;;5073613;28;20083;-67
2022/05/31 11:21:45;;;;;;;9.52;1.63;;;25.90;52.40;;;;;;5073340;28;20457;-70
2022/05/31 11:24:43;;;;;;;8.38;1.70;;;26.10;50.80;;;;;;5073227;28;20116;-69
2022/05/31 11:27:17;;;;;;;12.60;1.75;;;26.20;52.00;;;;;;5073119;28;20042;-68
2022/05/31 11:29:58;;;;;;;5.68;1.92;;;26.30;51.90;;;;;;5073061;28;20037;-68
2022/05/31 11:32:35;;;;;;;6.28;1.70;;;26.40;49.30;;;;;;5073341;28;20064;-69
2022/05/31 11:35:10;;;;;;;4.72;1.70;;;26.40;47.90;;;;;;5073136;28;20447;-68
2022/05/31 11:37:42;;;;;;;6.80;2.00;;;26.20;48.70;;;;;;5073046;28;20508;-68
2022/05/31 11:40:16;;;;;;;10.07;2.13;;;26.10;50.70;;;;;;5073299;28;20516;-68
2022/05/31 11:42:57;;;;;;;5.78;1.77;;;26.00;50.50;;;;;;5073114;28;20033;-69
2022/05/31 11:45:44;;;;;;;3.60;1.77;;;25.90;51.30;;;;;;5073248;28;20056;-69
2022/05/31 11:48:25;;;;;;;5.05;1.80;;;25.80;51.50;;;;;;5073138;28;20492;-68
2022/05/31 11:51:10;;;;;;;4.35;1.85;;;25.80;52.30;;;;;;5055202;28;20396;-68
2022/05/31 11:53:56;;;;;;;6.50;1.73;;;25.90;52.70;;;;;;5073081;28;20492;-69
2022/05/31 11:56:31;;;;;;;5.65;1.50;;;26.00;52.20;;;;;;5072259;28;20032;-68
2022/05/31 11:59:14;;;;;;;4.72;1.77;;;26.20;52.90;;;;;;5073076;28;20032;-68
2022/05/31 12:01:43;;;;;;;4.18;1.58;;;26.30;53.10;;;;;;5073017;28;20094;-68
2022/05/31 12:04:50;;;;;;;4.10;1.58;;;26.40;52.20;;;;;;5072430;28;20032;-68
2022/05/31 12:07:23;;;;;;;3.60;1.52;;;26.40;50.60;;;;;;5038632;28;20448;-69
2022/05/31 12:10:04;;;;;;;6.72;1.70;;;26.40;51.30;;;;;;5072725;28;20029;-69
2022/05/31 12:12:33;;;;;;;3.08;1.42;;;26.50;50.60;;;;;;5072635;28;20495;-68
2022/05/31 12:15:01;;;;;;;5.70;1.70;;;26.70;50.70;;;;;;5072819;28;20033;-69
2022/05/31 12:17:59;;;;;;;7.07;1.90;;;26.70;50.20;;;;;;5071542;28;20068;-70
2022/05/31 12:20:30;;;;;;;4.57;1.40;;;26.80;47.90;;;;;;5020959;28;20436;-71
2022/05/31 12:23:19;;;;;;;4.60;1.80;;;26.80;49.20;;;;;;5072107;28;20044;-69
2022/05/31 12:25:52;;;;;;;3.35;1.45;;;26.80;50.00;;;;;;5064421;28;20139;-68
2022/05/31 12:28:31;;;;;;;3.45;1.30;;;27.00;49.90;;;;;;5072490;28;20095;-68
2022/05/31 12:31:34;;;;;;;4.55;1.60;;;27.10;47.20;;;;;;5072354;28;20063;-68
2022/05/31 12:34:18;;;;;;;4.93;1.52;;;27.20;47.90;;;;;;4969366;28;20049;-69
2022/05/31 12:37:04;;;;;;;4.70;1.40;;;27.30;48.20;;;;;;5065092;28;20048;-69
2022/05/31 12:39:33;;;;;;;9.55;1.58;;;27.30;46.80;;;;;;5072416;28;20033;-69
2022/05/31 12:42:14;;;;;;;7.13;3.55;;;27.30;46.70;;;;;;5072388;28;20036;-69
2022/05/31 12:44:45;;;;;;;7.10;1.70;;;27.30;47.20;;;;;;5072430;28;20048;-68
2022/05/31 12:47:32;;;;;;;6.18;1.45;;;27.40;47.20;;;;;;5072947;28;20025;-69
2022/05/31 12:50:03;;;;;;;3.58;1.42;;;27.50;47.40;;;;;;5072664;28;20048;-69
2022/05/31 12:55:09;;;;;;;8.65;1.80;;;27.60;46.80;;;;;;5072702;28;20141;-68
2022/05/31 13:00:42;;;;;;;2.08;1.10;;;27.60;45.20;;;;;;5072559;28;20156;-69
2022/05/31 13:03:34;;;;;;;4.80;1.38;;;27.60;46.30;;;;;;5069166;28;20470;-69
2022/05/31 13:06:07;;;;;;;4.38;1.52;;;27.60;45.50;;;;;;5045797;28;20048;-69
2022/05/31 13:08:48;;;;;;;5.85;2.00;;;27.60;46.40;;;;;;5073568;28;20036;-70
2022/05/31 13:20:09;;;;;;;5.18;1.40;;;27.50;47.30;;;;;;5071435;28;20074;-69
2022/05/31 13:22:38;;;;;;;7.18;1.83;;;27.50;46.90;;;;;;5071728;28;20029;-68
2022/05/31 13:25:48;;;;;;;5.63;1.70;;;27.50;48.20;;;;;;5073409;28;20091;-69
2022/05/31 13:28:36;;;;;;;2.33;1.30;;;27.50;47.50;;;;;;5065897;28;20029;-68
2022/05/31 13:31:22;;;;;;;5.07;1.75;;;27.50;47.80;;;;;;5072513;28;20044;-68
2022/05/31 13:33:57;;;;;;;6.25;1.55;;;27.40;47.50;;;;;;5073124;28;20032;-68
2022/05/31 13:36:29;;;;;;;5.28;1.20;;;27.50;47.80;;;;;;5075490;28;20374;-69
2022/05/31 13:39:00;;;;;;;5.03;1.40;;;27.50;47.70;;;;;;5075114;28;20037;-68
2022/05/31 13:41:26;;;;;;;2.28;1.35;;;27.40;47.60;;;;;;5075581;28;20032;-70
2022/05/31 13:43:59;;;;;;;5.32;1.52;;;27.40;47.60;;;;;;5075578;28;20033;-68
2022/05/31 13:46:31;;;;;;;4.60;1.17;;;27.40;47.50;;;;;;5075303;28;20033;-69
2022/05/31 13:49:04;;;;;;;;;;;27.40;47.70;;;;;;5075746;28;20477;-69
2022/05/31 13:51:31;;;;;;;5.70;1.70;;;27.40;46.40;;;;;;5074042;28;19963;-68
2022/05/31 13:54:28;;;;;;;3.72;1.30;;;27.30;45.90;;;;;;5073543;28;20075;-67
2022/05/31 13:57:00;;;;;;;6.57;1.70;;;27.20;46.40;;;;;;5058195;28;20437;-68
2022/05/31 13:59:50;;;;;;;6.85;2.30;;;27.20;46.90;;;;;;5073608;28;20079;-68
2022/05/31 14:02:49;;;;;;;5.47;1.40;;;27.20;46.50;;;;;;5068802;28;20047;-68
2022/05/31 14:05:22;;;;;;;9.65;1.63;;;27.20;45.80;;;;;;5074265;28;20055;-70
2022/05/31 14:07:48;;;;;;;8.63;1.42;;;27.10;44.80;;;;;;5073650;28;20036;-68
2022/05/31 14:10:23;;;;;;;3.83;1.50;;;27.00;45.60;;;;;;5074681;28;20531;-68
2022/05/31 14:12:57;;;;;;;4.45;1.73;;;26.90;45.80;;;;;;5075512;28;20035;-68
2022/05/31 14:15:34;;;;;;;4.70;1.50;;;26.90;46.30;;;;;;5074628;28;20547;-68
2022/05/31 14:18:09;;;;;;;5.10;1.90;;;26.90;46.10;;;;;;5073912;28;20043;-68
2022/05/31 14:21:00;;;;;;;7.68;1.67;;;26.90;45.70;;;;;;5074323;28;20063;-68
2022/05/31 14:23:27;;;;;;;4.70;1.77;;;26.90;47.10;;;;;;5074310;28;20033;-68
2022/05/31 14:25:57;;;;;;;4.22;1.52;;;26.90;46.40;;;;;;5073860;28;20107;-68
2022/05/31 14:28:25;;;;;;;9.13;1.75;;;26.90;47.30;;;;;;5074111;28;20041;-67
2022/05/31 14:31:02;;;;;;;4.93;1.30;;;27.00;46.20;;;;;;5074161;28;20036;-69
2022/05/31 14:33:31;;;;;;;6.60;1.42;;;27.00;47.30;;;;;;5073994;28;20094;-69
2022/05/31 14:35:57;;;;;;;4.95;1.50;;;27.00;46.90;;;;;;5073418;28;20056;-68
2022/05/31 14:38:25;;;;;;;7.72;1.65;;;27.00;46.70;;;;;;5074010;28;20032;-68
2022/05/31 14:41:20;;;;;;;19.33;2.58;;;27.00;46.20;;;;;;5072629;28;20045;-68
2022/05/31 14:43:59;;;;;;;6.13;1.60;;;27.00;45.70;;;;;;5074194;28;20024;-68
2022/05/31 14:46:24;;;;;;;7.13;1.50;;;27.00;45.90;;;;;;5074415;28;20043;-68
2022/05/31 14:48:50;;;;;;;4.50;1.35;;;27.00;46.60;;;;;;5074405;28;20032;-68